sensor_id;sensor_type;location;lat;lon;timestamp;P1;durP1;ratioP1;P2;durP2;ratioP2
10174;SDS011;18221;38.704;0.152;2022-07-22T00:18:51;3.90;;;3.60;;
10174;SDS011;18221;38.704;0.152;2022-07-22T00:21:19;4.80;;;3.80;;
10174;SDS011;18221;38.704;0.152;2022-07-22T00:23:47;4.10;;;3.80;;
10174;SDS011;18221;38.704;0.152;2022-07-22T00:26:15;4.93;;;3.67;;
10174;SDS011;18221;38.704;0.152;2022-07-22T00:28:43;5.00;;;3.60;;
10174;SDS011;18221;38.704;0.152;2022-07-22T00:31:11;4.30;;;3.60;;
10174;SDS011;18221;38.704;0.152;2022-07-22T00:33:39;5.60;;;4.00;;
10174;SDS011;18221;38.704;0.152;2022-07-22T00:36:08;4.30;;;3.63;;
10174;SDS011;18221;38.704;0.152;2022-07-22T00:38:36;3.90;;;3.50;;
10174;SDS011;18221;38.704;0.152;2022-07-22T00:41:05;4.47;;;3.90;;
10174;SDS011;18221;38.704;0.152;2022-07-22T00:43:48;4.00;;;3.60;;
10174;SDS011;18221;38.704;0.152;2022-07-22T00:46:21;5.03;;;3.73;;
10174;SDS011;18221;38.704;0.152;2022-07-22T00:48:50;4.60;;;3.80;;
10174;SDS011;18221;38.704;0.152;2022-07-22T00:51:19;4.03;;;3.73;;
10174;SDS011;18221;38.704;0.152;2022-07-22T00:53:50;4.07;;;3.67;;
10174;SDS011;18221;38.704;0.152;2022-07-22T00:56:19;3.90;;;3.60;;
10174;SDS011;18221;38.704;0.152;2022-07-22T00:58:48;4.30;;;3.77;;
10174;SDS011;18221;38.704;0.152;2022-07-22T01:01:18;5.70;;;4.20;;
10174;SDS011;18221;38.704;0.152;2022-07-22T01:03:46;4.13;;;3.73;;
10174;SDS011;18221;38.704;0.152;2022-07-22T01:06:14;4.67;;;4.23;;
10174;SDS011;18221;38.704;0.152;2022-07-22T01:08:43;4.63;;;4.23;;
10174;SDS011;18221;38.704;0.152;2022-07-22T01:11:12;5.87;;;4.30;;
10174;SDS011;18221;38.704;0.152;2022-07-22T01:13:42;4.67;;;4.27;;
10174;SDS011;18221;38.704;0.152;2022-07-22T01:16:12;5.17;;;4.23;;
10174;SDS011;18221;38.704;0.152;2022-07-22T01:18:42;4.70;;;4.23;;
10174;SDS011;18221;38.704;0.152;2022-07-22T01:21:13;5.50;;;3.87;;
10174;SDS011;18221;38.704;0.152;2022-07-22T01:23:43;5.70;;;4.43;;
10174;SDS011;18221;38.704;0.152;2022-07-22T01:26:11;4.70;;;4.17;;
10174;SDS011;18221;38.704;0.152;2022-07-22T01:28:39;4.33;;;3.93;;
10174;SDS011;18221;38.704;0.152;2022-07-22T01:31:08;4.93;;;4.10;;
10174;SDS011;18221;38.704;0.152;2022-07-22T01:33:36;4.23;;;3.60;;
10174;SDS011;18221;38.704;0.152;2022-07-22T01:36:04;4.90;;;3.53;;
10174;SDS011;18221;38.704;0.152;2022-07-22T01:38:35;3.70;;;3.40;;
10174;SDS011;18221;38.704;0.152;2022-07-22T01:41:04;4.10;;;3.47;;
10174;SDS011;18221;38.704;0.152;2022-07-22T01:43:32;3.60;;;3.30;;
10174;SDS011;18221;38.704;0.152;2022-07-22T01:46:00;3.60;;;3.30;;
10174;SDS011;18221;38.704;0.152;2022-07-22T01:48:28;6.07;;;3.40;;
10174;SDS011;18221;38.704;0.152;2022-07-22T01:50:56;3.27;;;2.97;;
10174;SDS011;18221;38.704;0.152;2022-07-22T01:53:25;5.03;;;3.07;;
10174;SDS011;18221;38.704;0.152;2022-07-22T01:55:54;3.30;;;3.00;;
10174;SDS011;18221;38.704;0.152;2022-07-22T01:58:22;3.03;;;2.73;;
10174;SDS011;18221;38.704;0.152;2022-07-22T02:00:50;3.27;;;2.97;;
10174;SDS011;18221;38.704;0.152;2022-07-22T02:03:19;3.73;;;2.90;;
10174;SDS011;18221;38.704;0.152;2022-07-22T02:05:46;4.13;;;2.70;;
10174;SDS011;18221;38.704;0.152;2022-07-22T02:08:14;3.97;;;2.73;;
10174;SDS011;18221;38.704;0.152;2022-07-22T02:10:43;5.77;;;2.87;;
10174;SDS011;18221;38.704;0.152;2022-07-22T02:13:12;2.80;;;2.50;;
10174;SDS011;18221;38.704;0.152;2022-07-22T02:15:41;2.70;;;2.40;;
10174;SDS011;18221;38.704;0.152;2022-07-22T02:18:10;2.70;;;2.30;;
10174;SDS011;18221;38.704;0.152;2022-07-22T02:20:40;2.60;;;2.40;;
10174;SDS011;18221;38.704;0.152;2022-07-22T02:23:08;2.50;;;2.30;;
10174;SDS011;18221;38.704;0.152;2022-07-22T02:25:37;2.73;;;2.20;;
10174;SDS011;18221;38.704;0.152;2022-07-22T02:28:06;3.10;;;2.47;;
10174;SDS011;18221;38.704;0.152;2022-07-22T02:30:37;3.20;;;2.70;;
10174;SDS011;18221;38.704;0.152;2022-07-22T02:33:05;4.00;;;2.70;;
10174;SDS011;18221;38.704;0.152;2022-07-22T02:35:34;4.10;;;2.87;;
10174;SDS011;18221;38.704;0.152;2022-07-22T02:38:02;3.47;;;2.83;;
10174;SDS011;18221;38.704;0.152;2022-07-22T02:40:30;3.03;;;2.80;;
10174;SDS011;18221;38.704;0.152;2022-07-22T02:42:59;3.27;;;2.40;;
10174;SDS011;18221;38.704;0.152;2022-07-22T02:45:27;3.67;;;2.90;;
10174;SDS011;18221;38.704;0.152;2022-07-22T02:47:57;2.70;;;2.50;;
10174;SDS011;18221;38.704;0.152;2022-07-22T02:50:25;3.83;;;2.57;;
10174;SDS011;18221;38.704;0.152;2022-07-22T02:52:53;2.67;;;2.47;;
10174;SDS011;18221;38.704;0.152;2022-07-22T02:55:21;3.23;;;2.40;;
10174;SDS011;18221;38.704;0.152;2022-07-22T02:57:49;3.03;;;2.50;;
10174;SDS011;18221;38.704;0.152;2022-07-22T03:00:17;3.97;;;2.50;;
10174;SDS011;18221;38.704;0.152;2022-07-22T03:02:45;3.27;;;2.60;;
10174;SDS011;18221;38.704;0.152;2022-07-22T03:05:15;3.23;;;2.63;;
10174;SDS011;18221;38.704;0.152;2022-07-22T03:07:42;3.20;;;2.90;;
10174;SDS011;18221;38.704;0.152;2022-07-22T03:10:10;4.73;;;3.00;;
10174;SDS011;18221;38.704;0.152;2022-07-22T03:12:38;4.17;;;2.70;;
10174;SDS011;18221;38.704;0.152;2022-07-22T03:15:06;4.17;;;2.90;;
10174;SDS011;18221;38.704;0.152;2022-07-22T03:17:36;3.73;;;2.80;;
10174;SDS011;18221;38.704;0.152;2022-07-22T03:20:04;3.63;;;3.00;;
10174;SDS011;18221;38.704;0.152;2022-07-22T03:22:37;4.67;;;3.10;;
10174;SDS011;18221;38.704;0.152;2022-07-22T03:25:05;3.47;;;3.17;;
10174;SDS011;18221;38.704;0.152;2022-07-22T03:27:33;5.03;;;3.40;;
10174;SDS011;18221;38.704;0.152;2022-07-22T03:30:01;3.60;;;3.30;;
10174;SDS011;18221;38.704;0.152;2022-07-22T03:32:29;4.23;;;3.60;;
10174;SDS011;18221;38.704;0.152;2022-07-22T03:34:57;3.73;;;3.43;;
10174;SDS011;18221;38.704;0.152;2022-07-22T03:37:25;3.90;;;3.57;;
10174;SDS011;18221;38.704;0.152;2022-07-22T03:39:55;4.27;;;3.27;;
10174;SDS011;18221;38.704;0.152;2022-07-22T03:42:22;3.57;;;3.27;;
10174;SDS011;18221;38.704;0.152;2022-07-22T03:44:50;4.10;;;3.20;;
10174;SDS011;18221;38.704;0.152;2022-07-22T03:47:18;5.50;;;3.30;;
10174;SDS011;18221;38.704;0.152;2022-07-22T03:49:47;3.80;;;3.23;;
10174;SDS011;18221;38.704;0.152;2022-07-22T03:52:15;3.17;;;2.90;;
10174;SDS011;18221;38.704;0.152;2022-07-22T03:54:43;3.63;;;3.30;;
10174;SDS011;18221;38.704;0.152;2022-07-22T03:57:13;3.80;;;3.10;;
10174;SDS011;18221;38.704;0.152;2022-07-22T03:59:41;4.33;;;2.87;;
10174;SDS011;18221;38.704;0.152;2022-07-22T04:02:08;3.03;;;2.73;;
10174;SDS011;18221;38.704;0.152;2022-07-22T04:04:36;3.80;;;2.90;;
10174;SDS011;18221;38.704;0.152;2022-07-22T04:07:04;3.10;;;2.80;;
10174;SDS011;18221;38.704;0.152;2022-07-22T04:09:32;3.17;;;2.80;;
10174;SDS011;18221;38.704;0.152;2022-07-22T04:12:00;3.07;;;2.87;;
10174;SDS011;18221;38.704;0.152;2022-07-22T04:14:30;3.40;;;3.10;;
10174;SDS011;18221;38.704;0.152;2022-07-22T04:16:58;4.43;;;2.77;;
10174;SDS011;18221;38.704;0.152;2022-07-22T04:19:25;4.20;;;2.80;;
10174;SDS011;18221;38.704;0.152;2022-07-22T04:21:53;2.93;;;2.70;;
10174;SDS011;18221;38.704;0.152;2022-07-22T04:24:21;4.90;;;2.70;;
10174;SDS011;18221;38.704;0.152;2022-07-22T04:26:49;2.63;;;2.43;;
10174;SDS011;18221;38.704;0.152;2022-07-22T04:29:17;3.30;;;2.63;;
10174;SDS011;18221;38.704;0.152;2022-07-22T04:31:46;3.10;;;2.80;;
10174;SDS011;18221;38.704;0.152;2022-07-22T04:34:14;5.40;;;2.70;;
10174;SDS011;18221;38.704;0.152;2022-07-22T04:36:42;4.23;;;2.70;;
10174;SDS011;18221;38.704;0.152;2022-07-22T04:39:10;2.90;;;2.60;;
10174;SDS011;18221;38.704;0.152;2022-07-22T04:41:38;4.07;;;2.90;;
10174;SDS011;18221;38.704;0.152;2022-07-22T04:44:06;3.13;;;2.77;;
10174;SDS011;18221;38.704;0.152;2022-07-22T04:46:33;3.43;;;2.70;;
10174;SDS011;18221;38.704;0.152;2022-07-22T04:49:03;2.83;;;2.43;;
10174;SDS011;18221;38.704;0.152;2022-07-22T04:51:31;3.87;;;3.00;;
10174;SDS011;18221;38.704;0.152;2022-07-22T04:53:58;2.70;;;2.50;;
10174;SDS011;18221;38.704;0.152;2022-07-22T04:56:26;5.73;;;2.97;;
10174;SDS011;18221;38.704;0.152;2022-07-22T04:58:54;3.07;;;2.77;;
10174;SDS011;18221;38.704;0.152;2022-07-22T05:01:23;3.90;;;2.73;;
10174;SDS011;18221;38.704;0.152;2022-07-22T05:03:51;3.27;;;2.97;;
10174;SDS011;18221;38.704;0.152;2022-07-22T05:06:22;2.67;;;2.47;;
10174;SDS011;18221;38.704;0.152;2022-07-22T05:08:50;2.77;;;2.47;;
10174;SDS011;18221;38.704;0.152;2022-07-22T05:11:18;3.07;;;2.70;;
10174;SDS011;18221;38.704;0.152;2022-07-22T05:13:46;2.87;;;2.67;;
10174;SDS011;18221;38.704;0.152;2022-07-22T05:16:14;3.17;;;2.90;;
10174;SDS011;18221;38.704;0.152;2022-07-22T05:18:42;3.70;;;2.73;;
10174;SDS011;18221;38.704;0.152;2022-07-22T05:21:10;3.80;;;3.00;;
10174;SDS011;18221;38.704;0.152;2022-07-22T05:23:39;3.37;;;2.97;;
10174;SDS011;18221;38.704;0.152;2022-07-22T05:26:08;3.70;;;3.00;;
10174;SDS011;18221;38.704;0.152;2022-07-22T05:28:35;4.83;;;2.80;;
10174;SDS011;18221;38.704;0.152;2022-07-22T05:31:03;3.30;;;3.00;;
10174;SDS011;18221;38.704;0.152;2022-07-22T05:33:31;2.97;;;2.70;;
10174;SDS011;18221;38.704;0.152;2022-07-22T05:35:59;4.20;;;3.10;;
10174;SDS011;18221;38.704;0.152;2022-07-22T05:38:27;3.60;;;2.83;;
10174;SDS011;18221;38.704;0.152;2022-07-22T05:40:59;3.30;;;3.00;;
10174;SDS011;18221;38.704;0.152;2022-07-22T05:43:27;5.13;;;3.07;;
10174;SDS011;18221;38.704;0.152;2022-07-22T05:45:55;2.83;;;2.50;;
10174;SDS011;18221;38.704;0.152;2022-07-22T05:48:23;2.60;;;2.40;;
10174;SDS011;18221;38.704;0.152;2022-07-22T05:50:51;3.90;;;3.20;;
10174;SDS011;18221;38.704;0.152;2022-07-22T05:53:19;7.00;;;3.23;;
10174;SDS011;18221;38.704;0.152;2022-07-22T05:55:47;4.87;;;3.10;;
10174;SDS011;18221;38.704;0.152;2022-07-22T05:58:16;3.50;;;3.20;;
10174;SDS011;18221;38.704;0.152;2022-07-22T06:00:44;4.57;;;2.80;;
10174;SDS011;18221;38.704;0.152;2022-07-22T06:03:12;3.20;;;2.90;;
10174;SDS011;18221;38.704;0.152;2022-07-22T06:05:40;3.37;;;3.07;;
10174;SDS011;18221;38.704;0.152;2022-07-22T06:08:08;3.00;;;2.80;;
10174;SDS011;18221;38.704;0.152;2022-07-22T06:10:36;3.27;;;2.97;;
10174;SDS011;18221;38.704;0.152;2022-07-22T06:13:04;4.00;;;3.00;;
10174;SDS011;18221;38.704;0.152;2022-07-22T06:15:33;3.40;;;3.10;;
10174;SDS011;18221;38.704;0.152;2022-07-22T06:18:01;3.37;;;3.07;;
10174;SDS011;18221;38.704;0.152;2022-07-22T06:20:29;3.47;;;3.03;;
10174;SDS011;18221;38.704;0.152;2022-07-22T06:22:57;4.00;;;3.17;;
10174;SDS011;18221;38.704;0.152;2022-07-22T06:25:24;3.20;;;2.90;;
10174;SDS011;18221;38.704;0.152;2022-07-22T06:27:52;3.50;;;3.20;;
10174;SDS011;18221;38.704;0.152;2022-07-22T06:30:20;3.40;;;3.10;;
10174;SDS011;18221;38.704;0.152;2022-07-22T06:32:50;3.73;;;3.30;;
10174;SDS011;18221;38.704;0.152;2022-07-22T06:35:18;4.30;;;3.27;;
10174;SDS011;18221;38.704;0.152;2022-07-22T06:37:45;5.13;;;3.70;;
10174;SDS011;18221;38.704;0.152;2022-07-22T06:42:40;4.10;;;3.50;;
10174;SDS011;18221;38.704;0.152;2022-07-22T06:45:08;5.97;;;3.90;;
10174;SDS011;18221;38.704;0.152;2022-07-22T06:47:36;5.73;;;3.87;;
10174;SDS011;18221;38.704;0.152;2022-07-22T06:50:05;5.57;;;3.67;;
10174;SDS011;18221;38.704;0.152;2022-07-22T06:52:37;4.07;;;3.67;;
10174;SDS011;18221;38.704;0.152;2022-07-22T06:55:07;4.33;;;3.70;;
10174;SDS011;18221;38.704;0.152;2022-07-22T06:57:36;6.53;;;4.60;;
10174;SDS011;18221;38.704;0.152;2022-07-22T07:00:06;4.50;;;4.10;;
10174;SDS011;18221;38.704;0.152;2022-07-22T07:02:35;4.53;;;4.10;;
10174;SDS011;18221;38.704;0.152;2022-07-22T07:05:03;4.18;;;3.80;;
10174;SDS011;18221;38.704;0.152;2022-07-22T07:07:32;4.47;;;4.13;;
10174;SDS011;18221;38.704;0.152;2022-07-22T07:10:00;4.78;;;3.95;;
10174;SDS011;18221;38.704;0.152;2022-07-22T07:12:28;4.38;;;3.90;;
10174;SDS011;18221;38.704;0.152;2022-07-22T07:14:56;4.38;;;3.97;;
10174;SDS011;18221;38.704;0.152;2022-07-22T07:17:26;5.88;;;4.90;;
10174;SDS011;18221;38.704;0.152;2022-07-22T07:19:54;6.70;;;5.20;;
10174;SDS011;18221;38.704;0.152;2022-07-22T07:22:21;4.80;;;4.40;;
10174;SDS011;18221;38.704;0.152;2022-07-22T07:24:49;4.95;;;4.53;;
10174;SDS011;18221;38.704;0.152;2022-07-22T07:27:17;6.25;;;4.72;;
10174;SDS011;18221;38.704;0.152;2022-07-22T07:29:45;5.38;;;4.88;;
10174;SDS011;18221;38.704;0.152;2022-07-22T07:32:13;5.15;;;4.70;;
10174;SDS011;18221;38.704;0.152;2022-07-22T07:34:42;5.78;;;5.30;;
10174;SDS011;18221;38.704;0.152;2022-07-22T07:37:10;7.10;;;5.53;;
10174;SDS011;18221;38.704;0.152;2022-07-22T07:39:38;5.53;;;4.78;;
10174;SDS011;18221;38.704;0.152;2022-07-22T07:42:06;5.40;;;4.90;;
10174;SDS011;18221;38.704;0.152;2022-07-22T07:44:34;6.55;;;4.50;;
10174;SDS011;18221;38.704;0.152;2022-07-22T07:47:02;4.22;;;3.83;;
10174;SDS011;18221;38.704;0.152;2022-07-22T07:49:30;5.35;;;3.95;;
10174;SDS011;18221;38.704;0.152;2022-07-22T07:52:00;7.38;;;3.97;;
10174;SDS011;18221;38.704;0.152;2022-07-22T07:54:28;4.25;;;3.92;;
10174;SDS011;18221;38.704;0.152;2022-07-22T07:56:55;6.38;;;4.00;;
10174;SDS011;18221;38.704;0.152;2022-07-22T07:59:23;4.85;;;3.67;;
10174;SDS011;18221;38.704;0.152;2022-07-22T08:01:51;5.18;;;3.55;;
10174;SDS011;18221;38.704;0.152;2022-07-22T08:04:19;3.97;;;3.25;;
10174;SDS011;18221;38.704;0.152;2022-07-22T08:06:47;4.45;;;3.35;;
10174;SDS011;18221;38.704;0.152;2022-07-22T08:09:16;3.72;;;2.85;;
10174;SDS011;18221;38.704;0.152;2022-07-22T08:11:44;5.25;;;3.60;;
10174;SDS011;18221;38.704;0.152;2022-07-22T08:14:12;3.22;;;2.92;;
10174;SDS011;18221;38.704;0.152;2022-07-22T08:16:40;8.88;;;3.65;;
10174;SDS011;18221;38.704;0.152;2022-07-22T08:19:08;4.20;;;3.35;;
10174;SDS011;18221;38.704;0.152;2022-07-22T08:21:36;6.10;;;3.20;;
10174;SDS011;18221;38.704;0.152;2022-07-22T08:24:05;4.85;;;3.30;;
10174;SDS011;18221;38.704;0.152;2022-07-22T08:26:34;3.70;;;3.13;;
10174;SDS011;18221;38.704;0.152;2022-07-22T08:29:03;5.57;;;3.33;;
10174;SDS011;18221;38.704;0.152;2022-07-22T08:31:33;3.85;;;3.00;;
10174;SDS011;18221;38.704;0.152;2022-07-22T08:34:01;4.40;;;3.13;;
10174;SDS011;18221;38.704;0.152;2022-07-22T08:36:29;3.88;;;3.30;;
10174;SDS011;18221;38.704;0.152;2022-07-22T08:38:58;3.35;;;3.05;;
10174;SDS011;18221;38.704;0.152;2022-07-22T08:41:26;3.80;;;3.20;;
10174;SDS011;18221;38.704;0.152;2022-07-22T08:43:57;3.90;;;3.30;;
10174;SDS011;18221;38.704;0.152;2022-07-22T08:46:26;3.58;;;3.15;;
10174;SDS011;18221;38.704;0.152;2022-07-22T08:48:53;3.13;;;2.80;;
10174;SDS011;18221;38.704;0.152;2022-07-22T08:51:22;18.98;;;4.78;;
10174;SDS011;18221;38.704;0.152;2022-07-22T08:53:49;4.70;;;3.50;;
10174;SDS011;18221;38.704;0.152;2022-07-22T08:56:17;8.75;;;3.80;;
10174;SDS011;18221;38.704;0.152;2022-07-22T08:58:45;4.65;;;3.40;;
10174;SDS011;18221;38.704;0.152;2022-07-22T09:01:15;5.40;;;3.38;;
10174;SDS011;18221;38.704;0.152;2022-07-22T09:03:45;13.90;;;4.80;;
10174;SDS011;18221;38.704;0.152;2022-07-22T09:06:15;9.15;;;4.38;;
10174;SDS011;18221;38.704;0.152;2022-07-22T09:08:51;10.65;;;4.85;;
10174;SDS011;18221;38.704;0.152;2022-07-22T09:11:23;4.40;;;4.00;;
10174;SDS011;18221;38.704;0.152;2022-07-22T09:13:53;5.13;;;4.13;;
10174;SDS011;18221;38.704;0.152;2022-07-22T09:16:40;5.65;;;4.15;;
10174;SDS011;18221;38.704;0.152;2022-07-22T09:19:09;6.95;;;4.28;;
10174;SDS011;18221;38.704;0.152;2022-07-22T09:21:38;6.57;;;3.92;;
10174;SDS011;18221;38.704;0.152;2022-07-22T09:24:25;7.15;;;4.10;;
10174;SDS011;18221;38.704;0.152;2022-07-22T09:26:55;6.13;;;3.72;;
10174;SDS011;18221;38.704;0.152;2022-07-22T09:29:22;5.07;;;3.63;;
10174;SDS011;18221;38.704;0.152;2022-07-22T09:31:52;5.38;;;3.40;;
10174;SDS011;18221;38.704;0.152;2022-07-22T09:34:26;8.60;;;3.97;;
10174;SDS011;18221;38.704;0.152;2022-07-22T09:36:56;3.95;;;3.55;;
10174;SDS011;18221;38.704;0.152;2022-07-22T09:39:26;7.38;;;3.75;;
10174;SDS011;18221;38.704;0.152;2022-07-22T09:41:56;6.10;;;4.25;;
10174;SDS011;18221;38.704;0.152;2022-07-22T09:44:25;5.53;;;3.40;;
10174;SDS011;18221;38.704;0.152;2022-07-22T09:46:54;4.28;;;3.85;;
10174;SDS011;18221;38.704;0.152;2022-07-22T09:49:32;5.95;;;4.00;;
10174;SDS011;18221;38.704;0.152;2022-07-22T09:52:04;4.20;;;3.80;;
10174;SDS011;18221;38.704;0.152;2022-07-22T09:54:33;5.50;;;3.50;;
10174;SDS011;18221;38.704;0.152;2022-07-22T09:57:01;4.65;;;3.67;;
10174;SDS011;18221;38.704;0.152;2022-07-22T09:59:30;4.65;;;3.83;;
10174;SDS011;18221;38.704;0.152;2022-07-22T10:01:59;3.78;;;3.45;;
10174;SDS011;18221;38.704;0.152;2022-07-22T10:04:31;4.57;;;3.83;;
10174;SDS011;18221;38.704;0.152;2022-07-22T10:07:02;4.32;;;3.92;;
10174;SDS011;18221;38.704;0.152;2022-07-22T10:09:30;6.68;;;4.00;;
10174;SDS011;18221;38.704;0.152;2022-07-22T10:12:00;8.48;;;4.13;;
10174;SDS011;18221;38.704;0.152;2022-07-22T10:14:29;5.28;;;4.38;;
10174;SDS011;18221;38.704;0.152;2022-07-22T10:17:00;5.43;;;3.75;;
10174;SDS011;18221;38.704;0.152;2022-07-22T10:19:29;3.80;;;3.40;;
10174;SDS011;18221;38.704;0.152;2022-07-22T10:21:57;3.70;;;3.40;;
10174;SDS011;18221;38.704;0.152;2022-07-22T10:24:25;5.38;;;3.45;;
10174;SDS011;18221;38.704;0.152;2022-07-22T10:26:53;3.80;;;3.05;;
10174;SDS011;18221;38.704;0.152;2022-07-22T10:29:24;5.53;;;3.22;;
10174;SDS011;18221;38.704;0.152;2022-07-22T10:37:51;4.25;;;3.30;;
10174;SDS011;18221;38.704;0.152;2022-07-22T10:40:23;4.78;;;4.28;;
10174;SDS011;18221;38.704;0.152;2022-07-22T10:45:48;5.40;;;4.00;;
10174;SDS011;18221;38.704;0.152;2022-07-22T10:48:22;5.28;;;3.72;;
10174;SDS011;18221;38.704;0.152;2022-07-22T10:51:10;5.22;;;3.97;;
10174;SDS011;18221;38.704;0.152;2022-07-22T10:53:41;5.80;;;3.53;;
10174;SDS011;18221;38.704;0.152;2022-07-22T10:56:19;7.57;;;3.80;;
10174;SDS011;18221;38.704;0.152;2022-07-22T10:58:52;4.57;;;3.55;;
10174;SDS011;18221;38.704;0.152;2022-07-22T11:01:36;5.20;;;4.22;;
10174;SDS011;18221;38.704;0.152;2022-07-22T11:04:14;5.57;;;3.85;;
10174;SDS011;18221;38.704;0.152;2022-07-22T11:06:44;7.43;;;4.10;;
10174;SDS011;18221;38.704;0.152;2022-07-22T11:09:14;8.10;;;4.15;;
10174;SDS011;18221;38.704;0.152;2022-07-22T11:11:45;4.55;;;3.80;;
10174;SDS011;18221;38.704;0.152;2022-07-22T11:14:20;5.43;;;3.90;;
10174;SDS011;18221;38.704;0.152;2022-07-22T11:16:53;4.68;;;4.10;;
10174;SDS011;18221;38.704;0.152;2022-07-22T11:19:25;5.47;;;3.70;;
10174;SDS011;18221;38.704;0.152;2022-07-22T11:21:55;4.53;;;4.05;;
10174;SDS011;18221;38.704;0.152;2022-07-22T11:24:27;5.75;;;3.60;;
10174;SDS011;18221;38.704;0.152;2022-07-22T11:26:57;5.40;;;4.10;;
10174;SDS011;18221;38.704;0.152;2022-07-22T11:29:27;5.30;;;4.13;;
10174;SDS011;18221;38.704;0.152;2022-07-22T11:31:59;5.35;;;4.22;;
10174;SDS011;18221;38.704;0.152;2022-07-22T11:34:31;5.32;;;4.20;;
10174;SDS011;18221;38.704;0.152;2022-07-22T11:36:59;5.05;;;3.83;;
10174;SDS011;18221;38.704;0.152;2022-07-22T11:39:27;6.43;;;4.32;;
10174;SDS011;18221;38.704;0.152;2022-07-22T11:41:57;5.10;;;3.80;;
10174;SDS011;18221;38.704;0.152;2022-07-22T11:44:27;6.85;;;4.22;;
10174;SDS011;18221;38.704;0.152;2022-07-22T11:46:57;5.50;;;3.67;;
10174;SDS011;18221;38.704;0.152;2022-07-22T11:49:26;7.35;;;3.72;;
10174;SDS011;18221;38.704;0.152;2022-07-22T11:51:57;5.78;;;4.15;;
10174;SDS011;18221;38.704;0.152;2022-07-22T11:54:25;3.90;;;3.50;;
10174;SDS011;18221;38.704;0.152;2022-07-22T11:56:53;5.93;;;3.85;;
10174;SDS011;18221;38.704;0.152;2022-07-22T11:59:22;4.80;;;3.75;;
10174;SDS011;18221;38.704;0.152;2022-07-22T12:01:50;5.00;;;4.00;;
10174;SDS011;18221;38.704;0.152;2022-07-22T12:04:20;4.85;;;3.92;;
10174;SDS011;18221;38.704;0.152;2022-07-22T12:06:51;5.00;;;3.90;;
10174;SDS011;18221;38.704;0.152;2022-07-22T12:09:22;4.38;;;3.97;;
10174;SDS011;18221;38.704;0.152;2022-07-22T12:11:55;5.53;;;4.00;;
10174;SDS011;18221;38.704;0.152;2022-07-22T12:14:25;5.18;;;3.42;;
10174;SDS011;18221;38.704;0.152;2022-07-22T12:16:56;5.38;;;3.95;;
10174;SDS011;18221;38.704;0.152;2022-07-22T12:19:26;4.93;;;3.60;;
10174;SDS011;18221;38.704;0.152;2022-07-22T12:21:57;5.53;;;3.80;;
10174;SDS011;18221;38.704;0.152;2022-07-22T12:24:32;5.05;;;3.78;;
10174;SDS011;18221;38.704;0.152;2022-07-22T12:27:03;5.55;;;3.83;;
10174;SDS011;18221;38.704;0.152;2022-07-22T12:29:41;5.88;;;3.95;;
10174;SDS011;18221;38.704;0.152;2022-07-22T12:32:17;6.63;;;3.92;;
10174;SDS011;18221;38.704;0.152;2022-07-22T12:34:54;4.50;;;3.50;;
10174;SDS011;18221;38.704;0.152;2022-07-22T12:37:25;5.13;;;3.95;;
10174;SDS011;18221;38.704;0.152;2022-07-22T12:39:58;5.25;;;3.55;;
10174;SDS011;18221;38.704;0.152;2022-07-22T12:42:30;4.13;;;3.40;;
10174;SDS011;18221;38.704;0.152;2022-07-22T12:45:02;6.20;;;3.50;;
10174;SDS011;18221;38.704;0.152;2022-07-22T12:47:39;3.63;;;3.28;;
10174;SDS011;18221;38.704;0.152;2022-07-22T12:50:23;5.88;;;3.35;;
10174;SDS011;18221;38.704;0.152;2022-07-22T12:52:56;7.68;;;3.30;;
10174;SDS011;18221;38.704;0.152;2022-07-22T12:55:29;4.53;;;2.97;;
10174;SDS011;18221;38.704;0.152;2022-07-22T12:57:58;4.82;;;3.35;;
10174;SDS011;18221;38.704;0.152;2022-07-22T13:00:27;5.38;;;3.95;;
10174;SDS011;18221;38.704;0.152;2022-07-22T13:02:57;3.53;;;3.00;;
10174;SDS011;18221;38.704;0.152;2022-07-22T13:05:25;6.38;;;3.80;;
10174;SDS011;18221;38.704;0.152;2022-07-22T13:07:54;5.13;;;3.38;;
10174;SDS011;18221;38.704;0.152;2022-07-22T13:10:23;5.03;;;3.40;;
10174;SDS011;18221;38.704;0.152;2022-07-22T13:12:53;7.63;;;3.30;;
10174;SDS011;18221;38.704;0.152;2022-07-22T13:15:22;5.80;;;3.40;;
10174;SDS011;18221;38.704;0.152;2022-07-22T13:17:50;7.55;;;3.67;;
10174;SDS011;18221;38.704;0.152;2022-07-22T13:20:18;3.85;;;3.40;;
10174;SDS011;18221;38.704;0.152;2022-07-22T13:22:47;3.58;;;3.05;;
10174;SDS011;18221;38.704;0.152;2022-07-22T13:25:15;4.90;;;3.05;;
10174;SDS011;18221;38.704;0.152;2022-07-22T13:27:44;8.57;;;3.65;;
10174;SDS011;18221;38.704;0.152;2022-07-22T13:30:13;4.78;;;3.80;;
10174;SDS011;18221;38.704;0.152;2022-07-22T13:32:41;3.92;;;3.35;;
10174;SDS011;18221;38.704;0.152;2022-07-22T13:35:09;3.78;;;3.30;;
10174;SDS011;18221;38.704;0.152;2022-07-22T13:37:37;6.55;;;3.15;;
10174;SDS011;18221;38.704;0.152;2022-07-22T13:40:06;4.18;;;3.30;;
10174;SDS011;18221;38.704;0.152;2022-07-22T13:42:35;4.45;;;3.35;;
10174;SDS011;18221;38.704;0.152;2022-07-22T13:45:04;8.70;;;4.15;;
10174;SDS011;18221;38.704;0.152;2022-07-22T13:47:36;4.55;;;3.67;;
10174;SDS011;18221;38.704;0.152;2022-07-22T13:50:07;4.50;;;3.58;;
10174;SDS011;18221;38.704;0.152;2022-07-22T13:52:36;5.60;;;3.78;;
10174;SDS011;18221;38.704;0.152;2022-07-22T13:55:04;6.03;;;3.70;;
10174;SDS011;18221;38.704;0.152;2022-07-22T13:57:33;5.95;;;3.63;;
10174;SDS011;18221;38.704;0.152;2022-07-22T14:00:02;4.07;;;3.50;;
10174;SDS011;18221;38.704;0.152;2022-07-22T14:02:31;4.03;;;3.45;;
10174;SDS011;18221;38.704;0.152;2022-07-22T14:05:01;5.45;;;3.50;;
10174;SDS011;18221;38.704;0.152;2022-07-22T14:07:29;4.10;;;3.50;;
10174;SDS011;18221;38.704;0.152;2022-07-22T14:09:57;5.95;;;3.85;;
10174;SDS011;18221;38.704;0.152;2022-07-22T14:12:25;5.13;;;4.00;;
10174;SDS011;18221;38.704;0.152;2022-07-22T14:14:53;4.97;;;3.88;;
10174;SDS011;18221;38.704;0.152;2022-07-22T14:17:21;6.32;;;3.70;;
10174;SDS011;18221;38.704;0.152;2022-07-22T14:19:49;4.18;;;3.75;;
10174;SDS011;18221;38.704;0.152;2022-07-22T14:22:18;5.15;;;3.50;;
10174;SDS011;18221;38.704;0.152;2022-07-22T14:24:46;4.57;;;3.83;;
10174;SDS011;18221;38.704;0.152;2022-07-22T14:27:14;4.28;;;3.85;;
10174;SDS011;18221;38.704;0.152;2022-07-22T14:29:42;5.13;;;4.05;;
10174;SDS011;18221;38.704;0.152;2022-07-22T14:32:10;3.92;;;3.47;;
10174;SDS011;18221;38.704;0.152;2022-07-22T14:34:38;5.63;;;3.90;;
10174;SDS011;18221;38.704;0.152;2022-07-22T14:37:06;6.03;;;3.85;;
10174;SDS011;18221;38.704;0.152;2022-07-22T14:39:35;10.35;;;4.47;;
10174;SDS011;18221;38.704;0.152;2022-07-22T14:42:03;6.07;;;3.60;;
10174;SDS011;18221;38.704;0.152;2022-07-22T14:44:32;5.32;;;3.70;;
10174;SDS011;18221;38.704;0.152;2022-07-22T14:47:00;6.30;;;4.18;;
10174;SDS011;18221;38.704;0.152;2022-07-22T14:49:28;7.03;;;3.80;;
10174;SDS011;18221;38.704;0.152;2022-07-22T14:51:56;5.15;;;3.72;;
10174;SDS011;18221;38.704;0.152;2022-07-22T14:54:24;5.60;;;3.83;;
10174;SDS011;18221;38.704;0.152;2022-07-22T14:56:54;5.68;;;3.97;;
10174;SDS011;18221;38.704;0.152;2022-07-22T14:59:22;5.13;;;3.97;;
10174;SDS011;18221;38.704;0.152;2022-07-22T15:01:51;5.05;;;3.58;;
10174;SDS011;18221;38.704;0.152;2022-07-22T15:04:19;6.43;;;4.20;;
10174;SDS011;18221;38.704;0.152;2022-07-22T15:06:46;5.30;;;3.97;;
10174;SDS011;18221;38.704;0.152;2022-07-22T15:09:14;6.93;;;3.88;;
10174;SDS011;18221;38.704;0.152;2022-07-22T15:11:42;7.28;;;3.90;;
10174;SDS011;18221;38.704;0.152;2022-07-22T15:14:11;6.55;;;4.38;;
10174;SDS011;18221;38.704;0.152;2022-07-22T15:16:40;5.28;;;3.67;;
10174;SDS011;18221;38.704;0.152;2022-07-22T15:19:07;7.85;;;4.25;;
10174;SDS011;18221;38.704;0.152;2022-07-22T15:21:37;5.78;;;4.20;;
10174;SDS011;18221;38.704;0.152;2022-07-22T15:24:05;4.68;;;4.10;;
10174;SDS011;18221;38.704;0.152;2022-07-22T15:26:33;4.80;;;3.85;;
10174;SDS011;18221;38.704;0.152;2022-07-22T15:29:01;5.13;;;4.15;;